sensor_id;sensor_type;location;lat;lon;timestamp;P1;durP1;ratioP1;P2;durP2;ratioP2
38455;SDS011;24237;50.106;20.014;2023-12-28T00:01:08;77.72;;;33.53;;
38455;SDS011;24237;50.106;20.014;2023-12-28T00:03:34;81.35;;;34.38;;
38455;SDS011;24237;50.106;20.014;2023-12-28T00:05:59;86.13;;;36.22;;
38455;SDS011;24237;50.106;20.014;2023-12-28T00:08:25;76.03;;;35.10;;
38455;SDS011;24237;50.106;20.014;2023-12-28T00:10:51;84.85;;;35.88;;
38455;SDS011;24237;50.106;20.014;2023-12-28T00:13:17;76.75;;;35.17;;
38455;SDS011;24237;50.106;20.014;2023-12-28T00:15:42;85.43;;;36.65;;
38455;SDS011;24237;50.106;20.014;2023-12-28T00:18:08;79.93;;;34.28;;
38455;SDS011;24237;50.106;20.014;2023-12-28T00:20:34;77.50;;;32.88;;
38455;SDS011;24237;50.106;20.014;2023-12-28T00:22:59;76.38;;;33.17;;
38455;SDS011;24237;50.106;20.014;2023-12-28T00:25:26;76.40;;;33.83;;
38455;SDS011;24237;50.106;20.014;2023-12-28T00:27:51;76.13;;;33.33;;
38455;SDS011;24237;50.106;20.014;2023-12-28T00:30:17;77.38;;;33.42;;
38455;SDS011;24237;50.106;20.014;2023-12-28T00:32:43;78.25;;;32.83;;
38455;SDS011;24237;50.106;20.014;2023-12-28T00:35:11;82.28;;;34.28;;
38455;SDS011;24237;50.106;20.014;2023-12-28T00:37:36;77.93;;;33.63;;
38455;SDS011;24237;50.106;20.014;2023-12-28T00:40:02;86.88;;;34.65;;
38455;SDS011;24237;50.106;20.014;2023-12-28T00:42:28;77.00;;;33.40;;
38455;SDS011;24237;50.106;20.014;2023-12-28T00:44:54;77.10;;;32.72;;
38455;SDS011;24237;50.106;20.014;2023-12-28T00:47:20;80.55;;;34.08;;
38455;SDS011;24237;50.106;20.014;2023-12-28T00:49:45;79.57;;;33.60;;
38455;SDS011;24237;50.106;20.014;2023-12-28T00:52:12;81.73;;;33.50;;
38455;SDS011;24237;50.106;20.014;2023-12-28T00:54:38;72.15;;;31.60;;
38455;SDS011;24237;50.106;20.014;2023-12-28T00:57:23;71.03;;;32.22;;
38455;SDS011;24237;50.106;20.014;2023-12-28T00:59:49;73.43;;;31.73;;
38455;SDS011;24237;50.106;20.014;2023-12-28T01:02:15;66.82;;;29.77;;
38455;SDS011;24237;50.106;20.014;2023-12-28T01:04:40;71.88;;;31.38;;
38455;SDS011;24237;50.106;20.014;2023-12-28T01:07:06;68.68;;;31.00;;
38455;SDS011;24237;50.106;20.014;2023-12-28T01:09:32;79.40;;;32.28;;
38455;SDS011;24237;50.106;20.014;2023-12-28T01:11:58;74.85;;;30.52;;
38455;SDS011;24237;50.106;20.014;2023-12-28T01:14:24;69.28;;;30.00;;
38455;SDS011;24237;50.106;20.014;2023-12-28T01:16:51;67.95;;;30.92;;
38455;SDS011;24237;50.106;20.014;2023-12-28T01:19:16;66.10;;;29.10;;
38455;SDS011;24237;50.106;20.014;2023-12-28T01:21:42;68.80;;;29.42;;
38455;SDS011;24237;50.106;20.014;2023-12-28T01:24:08;62.92;;;30.00;;
38455;SDS011;24237;50.106;20.014;2023-12-28T01:26:33;72.65;;;32.05;;
38455;SDS011;24237;50.106;20.014;2023-12-28T01:28:59;74.70;;;30.45;;
38455;SDS011;24237;50.106;20.014;2023-12-28T01:31:28;61.17;;;30.20;;
38455;SDS011;24237;50.106;20.014;2023-12-28T01:33:53;74.32;;;30.23;;
38455;SDS011;24237;50.106;20.014;2023-12-28T01:36:20;70.28;;;29.65;;
38455;SDS011;24237;50.106;20.014;2023-12-28T01:38:46;69.05;;;31.17;;
38455;SDS011;24237;50.106;20.014;2023-12-28T01:41:13;71.65;;;31.10;;
38455;SDS011;24237;50.106;20.014;2023-12-28T01:43:41;68.38;;;29.88;;
38455;SDS011;24237;50.106;20.014;2023-12-28T01:46:17;70.72;;;30.15;;
38455;SDS011;24237;50.106;20.014;2023-12-28T01:48:44;68.20;;;29.85;;
38455;SDS011;24237;50.106;20.014;2023-12-28T01:51:12;65.07;;;28.88;;
38455;SDS011;24237;50.106;20.014;2023-12-28T01:53:39;72.43;;;28.30;;
38455;SDS011;24237;50.106;20.014;2023-12-28T01:56:05;70.00;;;29.58;;
38455;SDS011;24237;50.106;20.014;2023-12-28T01:58:32;70.93;;;30.58;;
38455;SDS011;24237;50.106;20.014;2023-12-28T02:00:59;67.43;;;29.77;;
38455;SDS011;24237;50.106;20.014;2023-12-28T02:03:25;75.43;;;30.67;;
38455;SDS011;24237;50.106;20.014;2023-12-28T02:05:51;69.28;;;30.48;;
38455;SDS011;24237;50.106;20.014;2023-12-28T02:08:17;63.85;;;28.85;;
38455;SDS011;24237;50.106;20.014;2023-12-28T02:10:43;65.78;;;29.77;;
38455;SDS011;24237;50.106;20.014;2023-12-28T02:13:09;71.25;;;30.35;;
38455;SDS011;24237;50.106;20.014;2023-12-28T02:15:35;72.35;;;30.25;;
38455;SDS011;24237;50.106;20.014;2023-12-28T02:18:01;71.65;;;30.13;;
38455;SDS011;24237;50.106;20.014;2023-12-28T02:20:33;68.97;;;30.73;;
38455;SDS011;24237;50.106;20.014;2023-12-28T02:22:59;67.05;;;29.60;;
38455;SDS011;24237;50.106;20.014;2023-12-28T02:25:26;69.95;;;30.20;;
38455;SDS011;24237;50.106;20.014;2023-12-28T02:27:51;70.20;;;31.13;;
38455;SDS011;24237;50.106;20.014;2023-12-28T02:30:18;69.80;;;30.02;;
38455;SDS011;24237;50.106;20.014;2023-12-28T02:35:37;71.05;;;30.10;;
38455;SDS011;24237;50.106;20.014;2023-12-28T02:38:06;66.03;;;28.23;;
38455;SDS011;24237;50.106;20.014;2023-12-28T02:40:38;71.70;;;29.35;;
38455;SDS011;24237;50.106;20.014;2023-12-28T02:43:07;70.30;;;30.25;;
38455;SDS011;24237;50.106;20.014;2023-12-28T02:45:34;67.97;;;29.85;;
38455;SDS011;24237;50.106;20.014;2023-12-28T02:48:00;71.13;;;30.77;;
38455;SDS011;24237;50.106;20.014;2023-12-28T02:50:26;64.50;;;28.63;;
38455;SDS011;24237;50.106;20.014;2023-12-28T02:52:52;66.32;;;28.35;;
38455;SDS011;24237;50.106;20.014;2023-12-28T02:55:17;72.80;;;29.73;;
38455;SDS011;24237;50.106;20.014;2023-12-28T02:57:43;71.20;;;29.50;;
38455;SDS011;24237;50.106;20.014;2023-12-28T03:00:10;69.60;;;29.80;;
38455;SDS011;24237;50.106;20.014;2023-12-28T03:02:36;63.63;;;27.63;;
38455;SDS011;24237;50.106;20.014;2023-12-28T03:05:06;69.80;;;30.52;;
38455;SDS011;24237;50.106;20.014;2023-12-28T03:07:32;63.60;;;28.75;;
38455;SDS011;24237;50.106;20.014;2023-12-28T03:09:58;73.90;;;29.95;;
38455;SDS011;24237;50.106;20.014;2023-12-28T03:12:24;71.05;;;28.15;;
38455;SDS011;24237;50.106;20.014;2023-12-28T03:14:50;67.70;;;28.27;;
38455;SDS011;24237;50.106;20.014;2023-12-28T03:17:16;63.17;;;25.58;;
38455;SDS011;24237;50.106;20.014;2023-12-28T03:19:41;66.10;;;28.70;;
38455;SDS011;24237;50.106;20.014;2023-12-28T03:22:07;65.90;;;28.38;;
38455;SDS011;24237;50.106;20.014;2023-12-28T03:24:33;66.20;;;27.75;;
38455;SDS011;24237;50.106;20.014;2023-12-28T03:26:59;65.38;;;26.70;;
38455;SDS011;24237;50.106;20.014;2023-12-28T03:29:24;63.85;;;27.42;;
38455;SDS011;24237;50.106;20.014;2023-12-28T03:31:50;64.47;;;26.67;;
38455;SDS011;24237;50.106;20.014;2023-12-28T03:34:16;63.15;;;26.27;;
38455;SDS011;24237;50.106;20.014;2023-12-28T03:36:42;60.42;;;27.35;;
38455;SDS011;24237;50.106;20.014;2023-12-28T03:39:08;62.53;;;26.15;;
38455;SDS011;24237;50.106;20.014;2023-12-28T03:41:33;65.38;;;27.27;;
38455;SDS011;24237;50.106;20.014;2023-12-28T03:43:59;64.40;;;26.80;;
38455;SDS011;24237;50.106;20.014;2023-12-28T03:46:25;62.60;;;28.05;;
38455;SDS011;24237;50.106;20.014;2023-12-28T03:48:52;67.95;;;27.58;;
38455;SDS011;24237;50.106;20.014;2023-12-28T03:51:18;71.95;;;28.02;;
38455;SDS011;24237;50.106;20.014;2023-12-28T03:53:44;69.35;;;28.85;;
38455;SDS011;24237;50.106;20.014;2023-12-28T03:56:20;62.22;;;27.67;;
38455;SDS011;24237;50.106;20.014;2023-12-28T03:59:07;65.85;;;27.38;;
38455;SDS011;24237;50.106;20.014;2023-12-28T04:01:32;66.32;;;26.73;;
38455;SDS011;24237;50.106;20.014;2023-12-28T04:03:58;58.50;;;26.58;;
38455;SDS011;24237;50.106;20.014;2023-12-28T04:06:24;60.83;;;27.13;;
38455;SDS011;24237;50.106;20.014;2023-12-28T04:08:50;56.00;;;25.38;;
38455;SDS011;24237;50.106;20.014;2023-12-28T04:11:15;67.93;;;28.27;;
38455;SDS011;24237;50.106;20.014;2023-12-28T04:13:41;66.57;;;27.30;;
38455;SDS011;24237;50.106;20.014;2023-12-28T04:16:07;69.43;;;27.55;;
38455;SDS011;24237;50.106;20.014;2023-12-28T04:18:34;67.25;;;27.75;;
38455;SDS011;24237;50.106;20.014;2023-12-28T04:21:00;61.15;;;26.88;;
38455;SDS011;24237;50.106;20.014;2023-12-28T04:23:25;61.72;;;26.48;;
38455;SDS011;24237;50.106;20.014;2023-12-28T04:25:52;65.97;;;29.02;;
38455;SDS011;24237;50.106;20.014;2023-12-28T04:28:17;69.50;;;27.42;;
38455;SDS011;24237;50.106;20.014;2023-12-28T04:30:44;65.55;;;27.35;;
38455;SDS011;24237;50.106;20.014;2023-12-28T04:33:10;63.30;;;28.63;;
38455;SDS011;24237;50.106;20.014;2023-12-28T04:35:36;66.30;;;31.38;;
38455;SDS011;24237;50.106;20.014;2023-12-28T04:38:02;73.80;;;31.45;;
38455;SDS011;24237;50.106;20.014;2023-12-28T04:40:27;61.10;;;30.27;;
38455;SDS011;24237;50.106;20.014;2023-12-28T04:42:53;74.05;;;28.95;;
38455;SDS011;24237;50.106;20.014;2023-12-28T04:45:19;71.38;;;31.13;;
38455;SDS011;24237;50.106;20.014;2023-12-28T04:47:44;69.75;;;30.13;;
38455;SDS011;24237;50.106;20.014;2023-12-28T04:50:10;70.78;;;30.65;;
38455;SDS011;24237;50.106;20.014;2023-12-28T04:52:36;63.80;;;29.88;;
38455;SDS011;24237;50.106;20.014;2023-12-28T04:55:02;68.75;;;29.48;;
38455;SDS011;24237;50.106;20.014;2023-12-28T04:57:28;72.55;;;28.92;;
38455;SDS011;24237;50.106;20.014;2023-12-28T04:59:54;69.90;;;30.55;;
38455;SDS011;24237;50.106;20.014;2023-12-28T05:02:19;64.70;;;27.58;;
38455;SDS011;24237;50.106;20.014;2023-12-28T05:04:45;75.25;;;28.50;;
38455;SDS011;24237;50.106;20.014;2023-12-28T05:07:11;66.22;;;28.60;;
38455;SDS011;24237;50.106;20.014;2023-12-28T05:09:36;64.35;;;27.83;;
38455;SDS011;24237;50.106;20.014;2023-12-28T05:12:02;60.35;;;26.38;;
38455;SDS011;24237;50.106;20.014;2023-12-28T05:14:28;73.32;;;28.33;;
38455;SDS011;24237;50.106;20.014;2023-12-28T05:16:54;71.18;;;29.33;;
38455;SDS011;24237;50.106;20.014;2023-12-28T05:19:19;59.30;;;28.83;;
38455;SDS011;24237;50.106;20.014;2023-12-28T05:21:45;65.70;;;28.58;;
38455;SDS011;24237;50.106;20.014;2023-12-28T05:24:12;60.75;;;26.42;;
38455;SDS011;24237;50.106;20.014;2023-12-28T05:26:38;60.63;;;27.15;;
38455;SDS011;24237;50.106;20.014;2023-12-28T05:29:04;65.85;;;28.20;;
38455;SDS011;24237;50.106;20.014;2023-12-28T05:31:30;55.58;;;25.98;;
38455;SDS011;24237;50.106;20.014;2023-12-28T05:33:55;62.13;;;27.45;;
38455;SDS011;24237;50.106;20.014;2023-12-28T05:36:23;61.78;;;27.55;;
38455;SDS011;24237;50.106;20.014;2023-12-28T05:38:49;66.63;;;26.98;;
38455;SDS011;24237;50.106;20.014;2023-12-28T05:41:14;60.83;;;26.70;;
38455;SDS011;24237;50.106;20.014;2023-12-28T05:43:40;63.65;;;26.40;;
38455;SDS011;24237;50.106;20.014;2023-12-28T05:46:06;58.10;;;27.55;;
38455;SDS011;24237;50.106;20.014;2023-12-28T05:48:32;60.03;;;27.40;;
38455;SDS011;24237;50.106;20.014;2023-12-28T05:50:57;62.40;;;27.00;;
38455;SDS011;24237;50.106;20.014;2023-12-28T05:53:23;64.00;;;26.52;;
38455;SDS011;24237;50.106;20.014;2023-12-28T05:55:49;66.75;;;27.35;;
38455;SDS011;24237;50.106;20.014;2023-12-28T05:58:15;59.35;;;26.83;;
38455;SDS011;24237;50.106;20.014;2023-12-28T06:00:41;59.08;;;24.95;;
38455;SDS011;24237;50.106;20.014;2023-12-28T06:03:07;59.23;;;26.97;;
38455;SDS011;24237;50.106;20.014;2023-12-28T06:05:33;64.30;;;25.75;;
38455;SDS011;24237;50.106;20.014;2023-12-28T06:07:59;59.50;;;26.15;;
38455;SDS011;24237;50.106;20.014;2023-12-28T06:10:24;57.85;;;25.52;;
38455;SDS011;24237;50.106;20.014;2023-12-28T06:12:50;61.38;;;26.85;;
38455;SDS011;24237;50.106;20.014;2023-12-28T06:15:16;59.47;;;23.25;;
38455;SDS011;24237;50.106;20.014;2023-12-28T06:17:42;58.13;;;25.88;;
38455;SDS011;24237;50.106;20.014;2023-12-28T06:20:08;61.05;;;26.70;;
38455;SDS011;24237;50.106;20.014;2023-12-28T06:22:37;54.42;;;25.75;;
38455;SDS011;24237;50.106;20.014;2023-12-28T06:25:03;67.22;;;26.40;;
38455;SDS011;24237;50.106;20.014;2023-12-28T06:27:29;66.95;;;26.67;;
38455;SDS011;24237;50.106;20.014;2023-12-28T06:29:56;58.42;;;24.35;;
38455;SDS011;24237;50.106;20.014;2023-12-28T06:32:21;56.45;;;24.70;;
38455;SDS011;24237;50.106;20.014;2023-12-28T06:34:47;49.85;;;22.70;;
38455;SDS011;24237;50.106;20.014;2023-12-28T06:37:13;48.17;;;20.17;;
38455;SDS011;24237;50.106;20.014;2023-12-28T06:39:39;48.28;;;21.63;;
38455;SDS011;24237;50.106;20.014;2023-12-28T06:42:05;52.47;;;22.60;;
38455;SDS011;24237;50.106;20.014;2023-12-28T06:44:31;52.53;;;22.98;;
38455;SDS011;24237;50.106;20.014;2023-12-28T06:46:57;52.47;;;23.20;;
38455;SDS011;24237;50.106;20.014;2023-12-28T06:49:23;49.40;;;21.15;;
38455;SDS011;24237;50.106;20.014;2023-12-28T06:51:49;45.10;;;22.58;;
38455;SDS011;24237;50.106;20.014;2023-12-28T06:54:15;49.22;;;22.20;;
38455;SDS011;24237;50.106;20.014;2023-12-28T06:56:41;55.30;;;23.98;;
38455;SDS011;24237;50.106;20.014;2023-12-28T06:59:07;51.10;;;21.63;;
38455;SDS011;24237;50.106;20.014;2023-12-28T07:01:37;44.45;;;20.50;;
38455;SDS011;24237;50.106;20.014;2023-12-28T07:04:04;46.42;;;22.08;;
38455;SDS011;24237;50.106;20.014;2023-12-28T07:06:29;51.22;;;23.30;;
38455;SDS011;24237;50.106;20.014;2023-12-28T07:08:55;54.95;;;22.95;;
38455;SDS011;24237;50.106;20.014;2023-12-28T07:11:21;56.72;;;23.33;;
38455;SDS011;24237;50.106;20.014;2023-12-28T07:13:48;65.18;;;25.60;;
38455;SDS011;24237;50.106;20.014;2023-12-28T07:16:14;64.30;;;24.52;;
38455;SDS011;24237;50.106;20.014;2023-12-28T07:18:40;54.60;;;25.40;;
38455;SDS011;24237;50.106;20.014;2023-12-28T07:21:06;58.72;;;25.13;;
38455;SDS011;24237;50.106;20.014;2023-12-28T07:23:36;59.88;;;26.40;;
38455;SDS011;24237;50.106;20.014;2023-12-28T07:26:02;54.90;;;24.42;;
38455;SDS011;24237;50.106;20.014;2023-12-28T07:28:28;58.72;;;23.88;;
38455;SDS011;24237;50.106;20.014;2023-12-28T07:30:54;56.17;;;23.85;;
38455;SDS011;24237;50.106;20.014;2023-12-28T07:33:20;56.17;;;23.75;;
38455;SDS011;24237;50.106;20.014;2023-12-28T07:35:46;55.65;;;23.67;;
38455;SDS011;24237;50.106;20.014;2023-12-28T07:38:11;52.47;;;22.60;;
38455;SDS011;24237;50.106;20.014;2023-12-28T07:40:37;53.58;;;23.63;;
38455;SDS011;24237;50.106;20.014;2023-12-28T07:43:03;56.10;;;22.65;;
38455;SDS011;24237;50.106;20.014;2023-12-28T07:45:29;47.67;;;21.23;;
38455;SDS011;24237;50.106;20.014;2023-12-28T07:47:55;54.75;;;22.73;;
38455;SDS011;24237;50.106;20.014;2023-12-28T07:50:21;52.72;;;21.67;;
38455;SDS011;24237;50.106;20.014;2023-12-28T07:52:47;53.95;;;22.98;;
38455;SDS011;24237;50.106;20.014;2023-12-28T07:55:13;51.30;;;23.63;;
38455;SDS011;24237;50.106;20.014;2023-12-28T07:57:39;52.67;;;22.77;;
38455;SDS011;24237;50.106;20.014;2023-12-28T08:00:06;56.92;;;22.45;;
38455;SDS011;24237;50.106;20.014;2023-12-28T08:02:33;60.22;;;24.48;;
38455;SDS011;24237;50.106;20.014;2023-12-28T08:04:58;47.28;;;22.20;;
38455;SDS011;24237;50.106;20.014;2023-12-28T08:07:24;63.28;;;25.52;;
38455;SDS011;24237;50.106;20.014;2023-12-28T08:09:50;44.78;;;21.38;;
38455;SDS011;24237;50.106;20.014;2023-12-28T08:12:16;48.40;;;22.83;;
38455;SDS011;24237;50.106;20.014;2023-12-28T08:14:42;51.13;;;24.30;;
38455;SDS011;24237;50.106;20.014;2023-12-28T08:17:08;48.85;;;21.20;;
38455;SDS011;24237;50.106;20.014;2023-12-28T08:19:34;35.72;;;18.23;;
38455;SDS011;24237;50.106;20.014;2023-12-28T08:22:00;47.97;;;22.50;;
38455;SDS011;24237;50.106;20.014;2023-12-28T08:24:26;41.13;;;19.38;;
38455;SDS011;24237;50.106;20.014;2023-12-28T08:26:51;40.45;;;18.25;;
38455;SDS011;24237;50.106;20.014;2023-12-28T08:29:18;42.42;;;20.02;;
38455;SDS011;24237;50.106;20.014;2023-12-28T08:31:43;41.55;;;18.65;;
38455;SDS011;24237;50.106;20.014;2023-12-28T08:34:09;38.95;;;18.92;;
38455;SDS011;24237;50.106;20.014;2023-12-28T08:36:35;42.20;;;18.90;;
38455;SDS011;24237;50.106;20.014;2023-12-28T08:39:01;38.03;;;19.38;;
38455;SDS011;24237;50.106;20.014;2023-12-28T08:41:26;43.97;;;18.85;;
38455;SDS011;24237;50.106;20.014;2023-12-28T08:43:53;38.55;;;18.45;;
38455;SDS011;24237;50.106;20.014;2023-12-28T08:46:21;37.65;;;17.60;;
38455;SDS011;24237;50.106;20.014;2023-12-28T08:48:49;37.40;;;18.15;;
38455;SDS011;24237;50.106;20.014;2023-12-28T08:51:35;35.60;;;18.05;;
38455;SDS011;24237;50.106;20.014;2023-12-28T08:54:01;33.58;;;16.40;;
38455;SDS011;24237;50.106;20.014;2023-12-28T08:56:46;35.50;;;16.48;;
38455;SDS011;24237;50.106;20.014;2023-12-28T08:59:13;35.40;;;17.67;;
38455;SDS011;24237;50.106;20.014;2023-12-28T09:01:39;37.85;;;18.80;;
38455;SDS011;24237;50.106;20.014;2023-12-28T09:04:04;34.75;;;15.80;;
38455;SDS011;24237;50.106;20.014;2023-12-28T09:06:30;33.50;;;15.88;;
38455;SDS011;24237;50.106;20.014;2023-12-28T09:08:56;34.97;;;15.32;;
38455;SDS011;24237;50.106;20.014;2023-12-28T09:11:21;32.50;;;15.98;;
38455;SDS011;24237;50.106;20.014;2023-12-28T09:13:47;34.88;;;15.65;;
38455;SDS011;24237;50.106;20.014;2023-12-28T09:16:14;30.77;;;15.93;;
38455;SDS011;24237;50.106;20.014;2023-12-28T09:18:40;34.67;;;15.45;;
38455;SDS011;24237;50.106;20.014;2023-12-28T09:21:07;27.97;;;14.83;;
38455;SDS011;24237;50.106;20.014;2023-12-28T09:23:34;34.97;;;15.38;;
38455;SDS011;24237;50.106;20.014;2023-12-28T09:26:01;32.03;;;14.77;;
38455;SDS011;24237;50.106;20.014;2023-12-28T09:28:34;29.05;;;13.50;;
38455;SDS011;24237;50.106;20.014;2023-12-28T09:31:00;28.55;;;14.88;;
38455;SDS011;24237;50.106;20.014;2023-12-28T09:33:26;27.23;;;13.27;;
38455;SDS011;24237;50.106;20.014;2023-12-28T09:35:52;30.77;;;14.98;;
38455;SDS011;24237;50.106;20.014;2023-12-28T09:38:18;33.63;;;15.13;;
38455;SDS011;24237;50.106;20.014;2023-12-28T09:40:44;32.08;;;14.32;;
38455;SDS011;24237;50.106;20.014;2023-12-28T09:43:22;31.10;;;14.90;;
38455;SDS011;24237;50.106;20.014;2023-12-28T09:45:52;37.17;;;16.05;;
38455;SDS011;24237;50.106;20.014;2023-12-28T09:48:19;40.70;;;17.38;;
38455;SDS011;24237;50.106;20.014;2023-12-28T09:50:48;36.78;;;16.58;;
38455;SDS011;24237;50.106;20.014;2023-12-28T09:53:22;33.50;;;13.68;;
38455;SDS011;24237;50.106;20.014;2023-12-28T09:55:49;29.73;;;14.45;;
38455;SDS011;24237;50.106;20.014;2023-12-28T09:58:17;35.20;;;14.93;;
38455;SDS011;24237;50.106;20.014;2023-12-28T10:00:44;32.75;;;13.40;;
38455;SDS011;24237;50.106;20.014;2023-12-28T10:03:14;29.85;;;13.63;;
38455;SDS011;24237;50.106;20.014;2023-12-28T10:05:41;37.72;;;13.57;;
38455;SDS011;24237;50.106;20.014;2023-12-28T10:08:07;28.77;;;13.45;;
38455;SDS011;24237;50.106;20.014;2023-12-28T10:10:33;26.33;;;13.02;;
38455;SDS011;24237;50.106;20.014;2023-12-28T10:12:59;34.03;;;14.70;;
38455;SDS011;24237;50.106;20.014;2023-12-28T10:15:25;34.25;;;15.60;;
38455;SDS011;24237;50.106;20.014;2023-12-28T10:17:51;32.78;;;15.70;;
38455;SDS011;24237;50.106;20.014;2023-12-28T10:20:26;30.73;;;13.77;;
38455;SDS011;24237;50.106;20.014;2023-12-28T10:22:57;33.60;;;16.17;;
38455;SDS011;24237;50.106;20.014;2023-12-28T10:25:23;32.95;;;16.08;;
38455;SDS011;24237;50.106;20.014;2023-12-28T10:27:52;31.30;;;16.33;;
38455;SDS011;24237;50.106;20.014;2023-12-28T10:30:21;41.35;;;17.02;;
38455;SDS011;24237;50.106;20.014;2023-12-28T10:32:47;34.25;;;16.80;;
38455;SDS011;24237;50.106;20.014;2023-12-28T10:35:13;41.47;;;17.48;;
38455;SDS011;24237;50.106;20.014;2023-12-28T10:37:40;36.58;;;16.77;;
38455;SDS011;24237;50.106;20.014;2023-12-28T10:40:13;31.73;;;15.60;;
38455;SDS011;24237;50.106;20.014;2023-12-28T10:45:14;35.67;;;17.88;;
38455;SDS011;24237;50.106;20.014;2023-12-28T10:47:45;40.47;;;16.67;;
38455;SDS011;24237;50.106;20.014;2023-12-28T10:50:34;36.10;;;16.15;;
38455;SDS011;24237;50.106;20.014;2023-12-28T10:56:03;27.67;;;14.63;;
38455;SDS011;24237;50.106;20.014;2023-12-28T10:58:49;31.20;;;14.23;;
38455;SDS011;24237;50.106;20.014;2023-12-28T11:01:37;32.45;;;14.98;;
38455;SDS011;24237;50.106;20.014;2023-12-28T11:06:40;28.65;;;14.70;;
38455;SDS011;24237;50.106;20.014;2023-12-28T11:09:08;24.63;;;12.60;;
38455;SDS011;24237;50.106;20.014;2023-12-28T11:11:35;28.53;;;12.77;;
38455;SDS011;24237;50.106;20.014;2023-12-28T11:14:02;27.38;;;12.90;;
38455;SDS011;24237;50.106;20.014;2023-12-28T11:16:29;24.38;;;13.15;;
38455;SDS011;24237;50.106;20.014;2023-12-28T11:18:57;32.78;;;14.10;;
38455;SDS011;24237;50.106;20.014;2023-12-28T11:21:24;37.17;;;13.48;;
38455;SDS011;24237;50.106;20.014;2023-12-28T11:23:51;27.05;;;14.68;;
38455;SDS011;24237;50.106;20.014;2023-12-28T11:26:18;28.00;;;13.52;;
38455;SDS011;24237;50.106;20.014;2023-12-28T11:28:45;26.25;;;14.10;;
38455;SDS011;24237;50.106;20.014;2023-12-28T11:31:14;28.38;;;13.95;;
38455;SDS011;24237;50.106;20.014;2023-12-28T11:33:47;27.42;;;13.60;;
38455;SDS011;24237;50.106;20.014;2023-12-28T11:36:22;22.17;;;12.80;;
38455;SDS011;24237;50.106;20.014;2023-12-28T11:38:54;22.73;;;11.77;;
38455;SDS011;24237;50.106;20.014;2023-12-28T11:41:26;22.38;;;11.18;;
38455;SDS011;24237;50.106;20.014;2023-12-28T11:43:53;28.00;;;11.73;;
38455;SDS011;24237;50.106;20.014;2023-12-28T11:46:22;25.15;;;11.15;;
38455;SDS011;24237;50.106;20.014;2023-12-28T11:48:48;24.17;;;11.35;;
38455;SDS011;24237;50.106;20.014;2023-12-28T11:51:14;24.70;;;12.38;;
38455;SDS011;24237;50.106;20.014;2023-12-28T11:53:40;24.40;;;12.70;;
38455;SDS011;24237;50.106;20.014;2023-12-28T11:56:07;22.15;;;12.13;;
38455;SDS011;24237;50.106;20.014;2023-12-28T11:58:35;25.70;;;12.10;;
38455;SDS011;24237;50.106;20.014;2023-12-28T12:01:02;25.80;;;12.10;;
38455;SDS011;24237;50.106;20.014;2023-12-28T12:03:27;25.83;;;12.65;;
38455;SDS011;24237;50.106;20.014;2023-12-28T12:05:55;30.10;;;13.13;;
38455;SDS011;24237;50.106;20.014;2023-12-28T12:08:22;34.95;;;13.07;;
38455;SDS011;24237;50.106;20.014;2023-12-28T12:10:48;25.60;;;11.82;;
38455;SDS011;24237;50.106;20.014;2023-12-28T12:13:25;21.80;;;11.70;;
38455;SDS011;24237;50.106;20.014;2023-12-28T12:15:52;26.17;;;11.65;;
38455;SDS011;24237;50.106;20.014;2023-12-28T12:18:18;23.13;;;10.70;;
38455;SDS011;24237;50.106;20.014;2023-12-28T12:20:44;26.90;;;11.23;;
38455;SDS011;24237;50.106;20.014;2023-12-28T12:23:10;20.98;;;10.07;;
38455;SDS011;24237;50.106;20.014;2023-12-28T12:25:37;27.75;;;10.80;;
38455;SDS011;24237;50.106;20.014;2023-12-28T12:28:05;22.63;;;10.48;;
38455;SDS011;24237;50.106;20.014;2023-12-28T12:30:31;18.98;;;9.35;;
38455;SDS011;24237;50.106;20.014;2023-12-28T12:32:57;22.73;;;10.40;;
38455;SDS011;24237;50.106;20.014;2023-12-28T12:35:23;21.90;;;9.50;;
38455;SDS011;24237;50.106;20.014;2023-12-28T12:37:49;22.73;;;9.77;;
38455;SDS011;24237;50.106;20.014;2023-12-28T12:40:16;19.08;;;9.40;;
38455;SDS011;24237;50.106;20.014;2023-12-28T12:42:51;20.98;;;9.73;;
38455;SDS011;24237;50.106;20.014;2023-12-28T12:45:18;18.75;;;9.07;;
38455;SDS011;24237;50.106;20.014;2023-12-28T12:47:44;21.20;;;10.32;;
38455;SDS011;24237;50.106;20.014;2023-12-28T12:50:11;31.98;;;10.90;;
38455;SDS011;24237;50.106;20.014;2023-12-28T12:52:37;21.35;;;10.23;;
38455;SDS011;24237;50.106;20.014;2023-12-28T12:55:04;23.77;;;9.93;;
38455;SDS011;24237;50.106;20.014;2023-12-28T12:57:30;22.23;;;10.23;;
38455;SDS011;24237;50.106;20.014;2023-12-28T12:59:56;23.83;;;10.13;;
38455;SDS011;24237;50.106;20.014;2023-12-28T13:02:22;22.15;;;10.82;;
38455;SDS011;24237;50.106;20.014;2023-12-28T13:04:52;21.48;;;10.50;;
38455;SDS011;24237;50.106;20.014;2023-12-28T13:07:20;21.55;;;10.48;;
38455;SDS011;24237;50.106;20.014;2023-12-28T13:09:46;23.95;;;10.85;;
38455;SDS011;24237;50.106;20.014;2023-12-28T13:12:12;29.95;;;10.88;;
38455;SDS011;24237;50.106;20.014;2023-12-28T13:14:38;22.38;;;11.43;;
38455;SDS011;24237;50.106;20.014;2023-12-28T13:17:07;24.33;;;10.98;;
38455;SDS011;24237;50.106;20.014;2023-12-28T13:19:33;20.65;;;10.65;;
38455;SDS011;24237;50.106;20.014;2023-12-28T13:21:58;19.90;;;9.98;;
38455;SDS011;24237;50.106;20.014;2023-12-28T13:24:24;22.52;;;11.13;;
38455;SDS011;24237;50.106;20.014;2023-12-28T13:26:49;23.88;;;9.93;;
38455;SDS011;24237;50.106;20.014;2023-12-28T13:29:15;24.58;;;10.52;;
38455;SDS011;24237;50.106;20.014;2023-12-28T13:31:41;19.33;;;10.52;;
38455;SDS011;24237;50.106;20.014;2023-12-28T13:34:06;27.33;;;10.23;;
38455;SDS011;24237;50.106;20.014;2023-12-28T13:36:32;24.55;;;9.88;;
38455;SDS011;24237;50.106;20.014;2023-12-28T13:38:59;24.00;;;10.13;;
38455;SDS011;24237;50.106;20.014;2023-12-28T13:41:25;22.35;;;10.82;;
38455;SDS011;24237;50.106;20.014;2023-12-28T13:43:50;19.40;;;9.27;;
38455;SDS011;24237;50.106;20.014;2023-12-28T13:46:16;19.85;;;9.23;;
38455;SDS011;24237;50.106;20.014;2023-12-28T13:48:42;21.65;;;9.73;;
38455;SDS011;24237;50.106;20.014;2023-12-28T13:51:07;25.02;;;10.25;;
38455;SDS011;24237;50.106;20.014;2023-12-28T13:53:33;25.30;;;10.23;;
38455;SDS011;24237;50.106;20.014;2023-12-28T13:56:05;17.85;;;9.45;;
38455;SDS011;24237;50.106;20.014;2023-12-28T13:58:33;20.63;;;9.90;;
38455;SDS011;24237;50.106;20.014;2023-12-28T14:00:59;21.80;;;10.48;;
38455;SDS011;24237;50.106;20.014;2023-12-28T14:03:30;24.30;;;10.38;;
38455;SDS011;24237;50.106;20.014;2023-12-28T14:05:56;24.27;;;10.18;;
38455;SDS011;24237;50.106;20.014;2023-12-28T14:08:22;30.80;;;10.90;;
38455;SDS011;24237;50.106;20.014;2023-12-28T14:10:47;24.58;;;10.75;;
38455;SDS011;24237;50.106;20.014;2023-12-28T14:13:13;29.63;;;10.73;;
38455;SDS011;24237;50.106;20.014;2023-12-28T14:15:39;26.50;;;10.90;;
38455;SDS011;24237;50.106;20.014;2023-12-28T14:18:04;29.15;;;11.38;;